createdAt,value
2018-07-26T00:00:58.536Z,17.63
2018-07-26T00:01:58.527Z,17.64
2018-07-26T00:02:58.509Z,17.64
2018-07-26T00:03:58.489Z,17.62
2018-07-26T00:04:58.482Z,17.66
2018-07-26T00:05:58.462Z,17.70
2018-07-26T00:06:58.456Z,17.78
2018-07-26T00:07:58.446Z,17.84
2018-07-26T00:08:58.426Z,17.78
2018-07-26T00:09:58.418Z,17.82
2018-07-26T00:10:58.401Z,17.87
2018-07-26T00:11:58.381Z,17.87
2018-07-26T00:12:58.375Z,17.99
2018-07-26T00:13:58.359Z,17.91
2018-07-26T00:14:58.349Z,18.00
2018-07-26T00:15:58.331Z,17.89
2018-07-26T00:16:58.318Z,17.92
2018-07-26T00:17:58.305Z,17.76
2018-07-26T00:18:58.288Z,17.73
2018-07-26T00:19:58.282Z,17.64
2018-07-26T00:20:58.270Z,17.66
2018-07-26T00:21:58.259Z,17.67
2018-07-26T00:22:58.243Z,17.53
2018-07-26T00:23:58.230Z,17.48
2018-07-26T00:24:58.217Z,17.51
2018-07-26T00:25:58.201Z,17.53
2018-07-26T00:26:58.189Z,17.43
2018-07-26T00:27:58.170Z,17.41
2018-07-26T00:28:58.163Z,17.33
2018-07-26T00:29:58.156Z,17.32
2018-07-26T00:30:58.150Z,17.30
2018-07-26T00:31:58.130Z,17.30
2018-07-26T00:32:58.109Z,17.40
2018-07-26T00:33:58.096Z,17.36
2018-07-26T00:34:58.079Z,17.41
2018-07-26T00:35:58.067Z,17.30
2018-07-26T00:36:58.063Z,17.26
2018-07-26T00:37:58.037Z,17.30
2018-07-26T00:38:58.025Z,17.35
2018-07-26T00:39:58.021Z,17.36
2018-07-26T00:40:57.993Z,17.33
2018-07-26T00:41:57.987Z,17.20
2018-07-26T00:42:57.971Z,17.17
2018-07-26T00:43:57.958Z,17.15
2018-07-26T00:44:57.940Z,17.11
2018-07-26T00:45:57.929Z,17.08
2018-07-26T00:46:57.914Z,17.08
2018-07-26T00:47:57.903Z,17.06
2018-07-26T00:48:57.888Z,17.03
2018-07-26T00:49:57.888Z,17.00
2018-07-26T00:50:57.868Z,17.07
2018-07-26T00:51:57.852Z,17.04
2018-07-26T00:52:57.840Z,17.06
2018-07-26T00:53:57.818Z,16.98
2018-07-26T00:54:57.806Z,16.99
2018-07-26T00:55:57.791Z,16.95
2018-07-26T00:56:57.784Z,16.86
2018-07-26T00:57:57.769Z,16.83
2018-07-26T00:58:57.749Z,16.89
2018-07-26T00:59:57.743Z,16.92
2018-07-26T01:00:57.730Z,17.00
2018-07-26T01:01:57.717Z,17.00
2018-07-26T01:02:57.699Z,17.04
2018-07-26T01:03:57.695Z,17.11
2018-07-26T01:04:57.666Z,17.13
2018-07-26T01:05:57.656Z,17.29
2018-07-26T01:06:57.637Z,17.33
2018-07-26T01:07:57.634Z,17.36
2018-07-26T01:08:57.621Z,17.41
2018-07-26T01:09:57.599Z,17.36
2018-07-26T01:10:57.587Z,17.28
2018-07-26T01:11:57.579Z,17.29
2018-07-26T01:12:57.560Z,17.29
2018-07-26T01:13:57.549Z,17.33
2018-07-26T01:14:57.532Z,17.25
2018-07-26T01:15:57.525Z,17.14
2018-07-26T01:16:57.509Z,17.14
2018-07-26T01:17:57.496Z,17.14
2018-07-26T01:18:57.480Z,17.04
2018-07-26T01:19:57.466Z,16.99
2018-07-26T01:20:57.447Z,17.06
2018-07-26T01:21:57.437Z,17.03
2018-07-26T01:22:57.421Z,17.03
2018-07-26T01:23:57.418Z,16.95
2018-07-26T01:24:57.399Z,17.03
2018-07-26T01:25:57.386Z,16.93
2018-07-26T01:26:57.367Z,16.89
2018-07-26T01:27:57.354Z,16.88
2018-07-26T01:28:57.345Z,16.88
2018-07-26T01:29:57.325Z,16.86
2018-07-26T01:30:57.312Z,16.92
2018-07-26T01:31:57.300Z,16.90
2018-07-26T01:32:57.287Z,16.95
2018-07-26T01:33:57.278Z,17.03
2018-07-26T01:34:57.262Z,17.03
2018-07-26T01:35:57.249Z,17.03
2018-07-26T01:36:57.233Z,16.88
2018-07-26T01:37:57.214Z,16.83
2018-07-26T01:38:57.210Z,16.90
2018-07-26T01:39:57.201Z,16.86
2018-07-26T01:40:57.179Z,16.83
2018-07-26T01:41:57.165Z,16.83
2018-07-26T01:42:57.160Z,16.73
2018-07-26T01:43:57.140Z,16.71
2018-07-26T01:44:57.118Z,16.74
2018-07-26T01:45:57.115Z,16.75
2018-07-26T01:46:57.095Z,16.71
2018-07-26T01:47:57.084Z,16.75
2018-07-26T01:48:57.063Z,16.74
2018-07-26T01:49:57.054Z,16.78
2018-07-26T01:50:57.042Z,16.80
2018-07-26T01:51:57.028Z,16.81
2018-07-26T01:52:57.023Z,16.92
2018-07-26T01:53:56.996Z,16.75
2018-07-26T01:54:56.984Z,16.83
2018-07-26T01:55:56.974Z,16.85
2018-07-26T01:56:56.965Z,16.90
2018-07-26T01:57:56.942Z,16.81
2018-07-26T01:58:56.923Z,16.80
2018-07-26T01:59:56.917Z,16.83
2018-07-26T02:00:56.901Z,16.78
2018-07-26T02:01:56.889Z,16.77
2018-07-26T02:02:56.866Z,16.77
2018-07-26T02:03:56.853Z,16.70
2018-07-26T02:04:56.840Z,16.70
2018-07-26T02:05:56.838Z,16.67
2018-07-26T02:06:56.816Z,16.65
2018-07-26T02:07:56.802Z,16.60
2018-07-26T02:08:56.792Z,16.62
2018-07-26T02:09:56.770Z,16.56
2018-07-26T02:10:56.767Z,16.59
2018-07-26T02:11:56.742Z,16.58
2018-07-26T02:12:56.735Z,16.55
2018-07-26T02:13:56.727Z,16.55
2018-07-26T02:14:56.703Z,16.53
2018-07-26T02:15:56.690Z,16.56
2018-07-26T02:16:56.675Z,16.48
2018-07-26T02:17:56.663Z,16.53
2018-07-26T02:18:56.650Z,16.53
2018-07-26T02:19:56.634Z,16.53
2018-07-26T02:20:56.628Z,16.50
2018-07-26T02:21:56.612Z,16.55
2018-07-26T02:22:56.603Z,16.49
2018-07-26T02:23:56.573Z,16.44
2018-07-26T02:24:56.565Z,16.49
2018-07-26T02:25:56.554Z,16.45
2018-07-26T02:26:56.535Z,16.50
2018-07-26T02:27:56.519Z,16.56
2018-07-26T02:28:56.510Z,16.55
2018-07-26T02:29:56.501Z,16.53
2018-07-26T02:30:56.516Z,16.62
2018-07-26T02:31:56.478Z,16.58
2018-07-26T02:32:56.455Z,16.65
2018-07-26T02:33:56.443Z,16.56
2018-07-26T02:34:56.429Z,16.62
2018-07-26T02:35:56.411Z,16.62
2018-07-26T02:36:56.489Z,16.60
2018-07-26T02:37:56.383Z,16.65
2018-07-26T02:38:56.373Z,16.60
2018-07-26T02:39:56.350Z,16.62
2018-07-26T02:40:56.344Z,16.63
2018-07-26T02:41:56.321Z,16.63
2018-07-26T02:42:56.315Z,16.70
2018-07-26T02:43:56.315Z,16.67
2018-07-26T02:44:56.283Z,16.68
2018-07-26T02:45:56.271Z,16.65
2018-07-26T02:46:56.253Z,16.63
2018-07-26T02:47:56.242Z,16.58
2018-07-26T02:48:56.224Z,16.60
2018-07-26T02:49:56.215Z,16.52
2018-07-26T02:50:56.196Z,16.50
2018-07-26T02:51:56.186Z,16.48
2018-07-26T02:52:56.173Z,16.50
2018-07-26T02:53:56.162Z,16.48
2018-07-26T02:54:56.151Z,16.40
2018-07-26T02:55:56.808Z,16.50
2018-07-26T02:56:56.113Z,16.53
2018-07-26T02:57:56.100Z,16.58
2018-07-26T02:58:56.084Z,16.62
2018-07-26T02:59:56.069Z,16.67
2018-07-26T03:00:56.076Z,16.62
2018-07-26T03:01:56.040Z,16.60
2018-07-26T03:02:56.031Z,16.53
2018-07-26T03:03:56.017Z,16.55
2018-07-26T03:04:56.001Z,16.44
2018-07-26T03:05:55.990Z,16.44
2018-07-26T03:06:55.979Z,16.44
2018-07-26T03:07:55.957Z,16.42
2018-07-26T03:08:55.935Z,16.41
2018-07-26T03:09:55.928Z,16.37
2018-07-26T03:10:55.922Z,16.38
2018-07-26T03:11:55.897Z,16.41
2018-07-26T03:12:55.889Z,16.35
2018-07-26T03:13:55.876Z,16.26
2018-07-26T03:14:55.860Z,16.22
2018-07-26T03:15:55.848Z,16.23
2018-07-26T03:16:55.832Z,16.25
2018-07-26T03:17:55.815Z,16.25
2018-07-26T03:18:55.800Z,16.16
2018-07-26T03:19:55.784Z,16.26
2018-07-26T03:20:55.819Z,16.20
2018-07-26T03:21:55.762Z,16.18
2018-07-26T03:22:55.747Z,16.09
2018-07-26T03:23:55.732Z,16.14
2018-07-26T03:24:55.717Z,16.14
2018-07-26T03:25:55.698Z,16.16
2018-07-26T03:26:55.687Z,16.26
2018-07-26T03:27:55.674Z,16.16
2018-07-26T03:28:55.658Z,16.26
2018-07-26T03:29:55.648Z,16.30
2018-07-26T03:30:55.629Z,16.20
2018-07-26T03:31:55.617Z,16.26
2018-07-26T03:32:55.628Z,16.30
2018-07-26T03:33:55.591Z,16.22
2018-07-26T03:34:55.577Z,16.22
2018-07-26T03:35:55.555Z,16.30
2018-07-26T03:36:55.546Z,16.31
2018-07-26T03:37:55.542Z,16.30
2018-07-26T03:38:55.516Z,16.37
2018-07-26T03:39:55.504Z,16.35
2018-07-26T03:40:55.484Z,16.30
2018-07-26T03:41:55.465Z,16.22
2018-07-26T03:42:55.464Z,16.22
2018-07-26T03:43:55.449Z,16.26
2018-07-26T03:44:55.431Z,16.18
2018-07-26T03:45:55.414Z,16.33
2018-07-26T03:46:55.398Z,16.22
2018-07-26T03:47:55.390Z,16.26
2018-07-26T03:48:55.367Z,16.27
2018-07-26T03:49:55.360Z,16.23
2018-07-26T03:50:55.348Z,16.22
2018-07-26T03:51:55.331Z,16.26
2018-07-26T03:52:55.315Z,16.25
2018-07-26T03:53:55.302Z,16.25
2018-07-26T03:54:55.284Z,16.18
2018-07-26T03:55:55.279Z,16.25
2018-07-26T03:56:55.267Z,16.31
2018-07-26T03:57:55.280Z,16.31
2018-07-26T03:58:55.231Z,16.30
2018-07-26T03:59:55.206Z,16.26
2018-07-26T04:00:55.200Z,16.31
2018-07-26T04:01:55.181Z,16.33
2018-07-26T04:02:55.169Z,16.23
2018-07-26T04:03:55.158Z,16.25
2018-07-26T04:04:55.140Z,16.30
2018-07-26T04:05:55.135Z,16.22
2018-07-26T04:06:55.110Z,16.25
2018-07-26T04:07:55.097Z,16.23
2018-07-26T04:08:55.086Z,16.30
2018-07-26T04:09:55.070Z,16.31
2018-07-26T04:10:55.061Z,16.25
2018-07-26T04:11:55.042Z,16.23
2018-07-26T04:12:55.030Z,16.33
2018-07-26T04:13:55.058Z,16.31
2018-07-26T04:14:55.000Z,16.37
2018-07-26T04:15:54.978Z,16.33
2018-07-26T04:16:54.987Z,16.35
2018-07-26T04:17:54.984Z,16.35
2018-07-26T04:18:54.943Z,16.33
2018-07-26T04:19:54.923Z,16.40
2018-07-26T04:20:54.920Z,16.33
2018-07-26T04:21:54.907Z,16.35
2018-07-26T04:22:54.879Z,16.35
2018-07-26T04:23:54.863Z,16.34
2018-07-26T04:24:54.854Z,16.42
2018-07-26T04:25:54.847Z,16.37
2018-07-26T04:26:54.825Z,16.42
2018-07-26T04:27:54.818Z,16.44
2018-07-26T04:28:54.809Z,16.52
2018-07-26T04:29:54.786Z,16.52
2018-07-26T04:30:54.771Z,16.50
2018-07-26T04:31:54.859Z,16.56
2018-07-26T04:32:54.742Z,16.55
2018-07-26T04:33:54.730Z,16.60
2018-07-26T04:34:54.713Z,16.60
2018-07-26T04:35:54.691Z,16.62
2018-07-26T04:36:54.689Z,16.62
2018-07-26T04:37:54.675Z,16.65
2018-07-26T04:38:54.660Z,16.74
2018-07-26T04:39:54.640Z,16.70
2018-07-26T04:40:54.646Z,16.75
2018-07-26T04:41:54.621Z,16.74
2018-07-26T04:42:54.634Z,16.89
2018-07-26T04:43:54.583Z,16.77
2018-07-26T04:44:54.570Z,16.89
2018-07-26T04:45:54.554Z,17.00
2018-07-26T04:46:54.544Z,16.95
2018-07-26T04:47:54.526Z,17.04
2018-07-26T04:48:54.541Z,16.98
2018-07-26T04:49:54.513Z,17.06
2018-07-26T04:50:54.486Z,17.03
2018-07-26T04:51:54.481Z,17.06
2018-07-26T04:52:54.522Z,17.03
2018-07-26T04:53:54.439Z,17.07
2018-07-26T04:54:54.452Z,17.04
2018-07-26T04:55:54.416Z,17.18
2018-07-26T04:56:54.408Z,17.17
2018-07-26T04:57:54.388Z,17.17
2018-07-26T04:58:54.373Z,17.30
2018-07-26T04:59:54.359Z,17.33
2018-07-26T05:00:54.343Z,17.43
2018-07-26T05:01:54.343Z,17.50
2018-07-26T05:02:54.321Z,17.54
2018-07-26T05:03:54.305Z,17.53
2018-07-26T05:04:54.298Z,17.71
2018-07-26T05:05:54.277Z,17.63
2018-07-26T05:06:54.268Z,17.62
2018-07-26T05:07:54.253Z,17.63
2018-07-26T05:08:54.235Z,17.69
2018-07-26T05:09:54.226Z,17.74
2018-07-26T05:10:54.229Z,17.81
2018-07-26T05:11:54.223Z,17.85
2018-07-26T05:12:54.189Z,17.94
2018-07-26T05:13:54.175Z,17.94
2018-07-26T05:14:54.162Z,18.02
2018-07-26T05:15:54.142Z,18.03
2018-07-26T05:16:54.127Z,18.10
2018-07-26T05:17:54.120Z,18.25
2018-07-26T05:18:54.123Z,18.27
2018-07-26T05:19:54.088Z,18.39
2018-07-26T05:20:54.076Z,18.44
2018-07-26T05:21:54.064Z,18.43
2018-07-26T05:22:54.054Z,18.57
2018-07-26T05:23:54.051Z,18.59
2018-07-26T05:24:54.045Z,18.62
2018-07-26T05:25:54.013Z,18.59
2018-07-26T05:26:54.000Z,18.79
2018-07-26T05:27:53.987Z,18.72
2018-07-26T05:28:53.974Z,18.86
2018-07-26T05:29:53.974Z,18.86
2018-07-26T05:30:53.952Z,19.01
2018-07-26T05:31:53.936Z,19.05
2018-07-26T05:32:53.932Z,19.11
2018-07-26T05:33:54.770Z,19.11
2018-07-26T05:34:53.904Z,19.20
2018-07-26T05:35:53.898Z,19.25
2018-07-26T05:36:53.904Z,19.42
2018-07-26T05:37:53.930Z,19.53
2018-07-26T05:38:53.854Z,19.54
2018-07-26T05:39:53.836Z,19.50
2018-07-26T05:40:53.826Z,19.66
2018-07-26T05:41:53.813Z,19.73
2018-07-26T05:42:53.798Z,19.76
2018-07-26T05:43:53.785Z,19.84
2018-07-26T05:44:53.785Z,19.97
2018-07-26T05:45:53.775Z,20.05
2018-07-26T05:46:53.749Z,20.16
2018-07-26T05:47:53.743Z,20.23
2018-07-26T05:48:53.734Z,20.27
2018-07-26T05:49:53.721Z,20.33
2018-07-26T05:50:53.741Z,20.41
2018-07-26T05:51:53.695Z,20.39
2018-07-26T05:52:53.683Z,20.43
2018-07-26T05:53:53.667Z,20.49
2018-07-26T05:54:53.679Z,20.54
2018-07-26T05:55:53.651Z,20.71
2018-07-26T05:56:53.651Z,20.83
2018-07-26T05:57:53.620Z,20.83
2018-07-26T05:58:53.610Z,20.93
2018-07-26T05:59:53.613Z,20.93
2018-07-26T06:00:53.595Z,20.95
2018-07-26T06:01:53.588Z,21.13
2018-07-26T06:02:53.575Z,21.13
2018-07-26T06:03:53.562Z,21.23
2018-07-26T06:04:53.552Z,21.34
2018-07-26T06:05:53.544Z,21.51
2018-07-26T06:06:53.546Z,21.53
2018-07-26T06:07:53.515Z,21.66
2018-07-26T06:08:53.524Z,21.79
2018-07-26T06:09:53.512Z,21.75
2018-07-26T06:10:53.488Z,21.97
2018-07-26T06:11:53.481Z,22.07
2018-07-26T06:12:53.468Z,22.17
2018-07-26T06:13:53.471Z,22.22
2018-07-26T06:14:53.442Z,22.34
2018-07-26T06:15:53.445Z,22.52
2018-07-26T06:16:53.439Z,22.64
2018-07-26T06:17:53.421Z,22.75
2018-07-26T06:18:53.417Z,22.96
2018-07-26T06:19:53.404Z,23.09
2018-07-26T06:20:53.414Z,23.15
2018-07-26T06:21:53.380Z,23.31
2018-07-26T06:22:53.388Z,23.53
2018-07-26T06:23:53.362Z,23.79
2018-07-26T06:24:53.351Z,23.95
2018-07-26T06:25:53.343Z,24.07
2018-07-26T06:26:53.337Z,24.19
2018-07-26T06:27:53.338Z,24.29
2018-07-26T06:28:53.315Z,24.37
2018-07-26T06:29:53.302Z,24.49
2018-07-26T06:30:53.299Z,24.54
2018-07-26T06:31:53.305Z,24.59
2018-07-26T06:32:53.278Z,24.75
2018-07-26T06:33:53.289Z,24.87
2018-07-26T06:34:53.257Z,24.90
2018-07-26T06:35:53.260Z,25.01
2018-07-26T06:36:53.262Z,25.16
2018-07-26T06:37:53.237Z,25.31
2018-07-26T06:38:53.224Z,25.32
2018-07-26T06:39:53.215Z,25.30
2018-07-26T06:40:53.202Z,25.38
2018-07-26T06:41:53.199Z,25.46
2018-07-26T06:42:53.196Z,25.57
2018-07-26T06:43:53.177Z,25.59
2018-07-26T06:44:53.173Z,25.56
2018-07-26T06:45:53.170Z,25.67
2018-07-26T06:46:53.151Z,25.72
2018-07-26T06:47:53.145Z,25.75
2018-07-26T06:48:53.135Z,25.77
2018-07-26T06:49:53.143Z,25.82
2018-07-26T06:50:53.129Z,25.84
2018-07-26T06:51:53.112Z,25.84
2018-07-26T06:52:53.121Z,25.84
2018-07-26T06:53:53.143Z,25.80
2018-07-26T06:54:53.083Z,25.90
2018-07-26T06:55:53.089Z,25.84
2018-07-26T06:56:53.086Z,25.91
2018-07-26T06:57:53.064Z,26.02
2018-07-26T06:58:53.051Z,25.93
2018-07-26T06:59:53.045Z,25.98
2018-07-26T07:00:53.053Z,26.05
2018-07-26T07:01:53.026Z,26.06
2018-07-26T07:02:53.023Z,26.18
2018-07-26T07:03:53.024Z,26.17
2018-07-26T07:04:53.004Z,26.18
2018-07-26T07:05:53.024Z,26.32
2018-07-26T07:06:53.003Z,26.46
2018-07-26T07:07:53.003Z,26.47
2018-07-26T07:08:53.016Z,26.58
2018-07-26T07:09:52.971Z,26.61
2018-07-26T07:10:52.959Z,26.57
2018-07-26T07:11:52.962Z,26.81
2018-07-26T07:12:52.949Z,27.02
2018-07-26T07:13:52.947Z,27.11
2018-07-26T07:14:52.962Z,27.24
2018-07-26T07:15:52.917Z,27.32
2018-07-26T07:16:52.917Z,27.38
2018-07-26T07:17:52.924Z,27.46
2018-07-26T07:18:52.895Z,27.58
2018-07-26T07:19:52.898Z,27.62
2018-07-26T07:20:52.885Z,27.74
2018-07-26T07:21:52.882Z,27.85
2018-07-26T07:22:52.872Z,27.92
2018-07-26T07:23:52.860Z,27.89
2018-07-26T07:24:52.853Z,27.91
2018-07-26T07:25:52.843Z,27.94
2018-07-26T07:26:52.848Z,27.94
2018-07-26T07:27:52.847Z,28.03
2018-07-26T07:28:52.830Z,28.22
2018-07-26T07:29:52.856Z,28.38
2018-07-26T07:30:52.817Z,28.56
2018-07-26T07:31:52.814Z,28.72
2018-07-26T07:32:52.798Z,29.00
2018-07-26T07:33:52.808Z,29.29
2018-07-26T07:34:52.795Z,29.60
2018-07-26T07:35:52.799Z,29.89
2018-07-26T07:36:52.789Z,30.08
2018-07-26T07:37:52.770Z,30.29
2018-07-26T07:38:52.773Z,30.61
2018-07-26T07:39:52.760Z,30.71
2018-07-26T07:40:52.756Z,31.15
2018-07-26T07:41:52.751Z,31.18
2018-07-26T07:42:52.748Z,31.33
2018-07-26T07:43:52.751Z,31.46
2018-07-26T07:44:52.738Z,31.88
2018-07-26T07:45:52.738Z,32.29
2018-07-26T07:46:52.726Z,32.79
2018-07-26T07:47:52.735Z,33.06
2018-07-26T07:48:52.725Z,32.91
2018-07-26T07:49:52.719Z,32.58
2018-07-26T07:50:52.712Z,32.49
2018-07-26T07:51:52.719Z,32.29
2018-07-26T07:52:52.738Z,32.37
2018-07-26T07:53:52.706Z,32.81
2018-07-26T07:54:52.699Z,32.85
2018-07-26T07:55:52.699Z,32.89
2018-07-26T07:56:52.693Z,32.93
2018-07-26T07:57:52.693Z,32.85
2018-07-26T07:58:52.693Z,32.89
2018-07-26T07:59:52.737Z,33.29
2018-07-26T08:00:52.687Z,33.41
2018-07-26T08:01:52.688Z,33.20
2018-07-26T08:02:52.682Z,33.39
2018-07-26T08:03:52.673Z,33.49
2018-07-26T08:04:52.682Z,33.29
2018-07-26T08:05:52.663Z,33.11
2018-07-26T08:06:52.704Z,32.91
2018-07-26T08:07:52.663Z,32.99
2018-07-26T08:08:52.656Z,33.30
2018-07-26T08:09:52.657Z,33.53
2018-07-26T08:10:52.663Z,33.57
2018-07-26T08:11:52.651Z,33.42
2018-07-26T08:12:52.653Z,33.46
2018-07-26T08:13:52.640Z,33.45
2018-07-26T08:14:52.646Z,33.41
2018-07-26T08:15:52.643Z,33.48
2018-07-26T08:16:52.636Z,33.65
2018-07-26T08:17:52.641Z,33.55
2018-07-26T08:18:52.636Z,33.55
2018-07-26T08:19:52.633Z,33.76
2018-07-26T08:20:52.629Z,33.57
2018-07-26T08:21:52.627Z,33.41
2018-07-26T08:22:52.624Z,33.60
2018-07-26T08:23:52.627Z,33.48
2018-07-26T08:24:52.627Z,33.83
2018-07-26T08:25:52.618Z,33.89
2018-07-26T08:26:52.623Z,33.89
2018-07-26T08:27:52.626Z,33.74
2018-07-26T08:28:52.614Z,33.64
2018-07-26T08:29:52.622Z,33.71
2018-07-26T08:30:52.619Z,33.82
2018-07-26T08:31:52.608Z,33.94
2018-07-26T08:32:52.608Z,33.60
2018-07-26T08:33:52.621Z,33.79
2018-07-26T08:34:52.605Z,33.78
2018-07-26T08:35:52.595Z,34.01
2018-07-26T08:36:52.605Z,34.17
2018-07-26T08:37:52.599Z,34.17
2018-07-26T08:38:52.598Z,33.98
2018-07-26T08:39:52.594Z,34.02
2018-07-26T08:40:52.595Z,33.73
2018-07-26T08:41:52.605Z,33.90
2018-07-26T08:42:52.602Z,33.87
2018-07-26T08:43:52.606Z,34.08
2018-07-26T08:44:52.589Z,34.29
2018-07-26T08:45:52.582Z,34.19
2018-07-26T08:46:52.589Z,34.19
2018-07-26T08:47:52.586Z,34.23
2018-07-26T08:48:52.583Z,34.00
2018-07-26T08:49:52.573Z,34.35
2018-07-26T08:50:52.582Z,34.50
2018-07-26T08:51:52.572Z,34.44
2018-07-26T08:52:52.573Z,34.35
2018-07-26T08:53:52.570Z,34.46
2018-07-26T08:54:52.567Z,34.57
2018-07-26T08:55:52.564Z,34.60
2018-07-26T08:56:52.567Z,34.63
2018-07-26T08:57:52.564Z,34.24
2018-07-26T08:58:52.563Z,34.04
2018-07-26T08:59:52.551Z,34.27
2018-07-26T09:00:52.560Z,34.07
2018-07-26T09:01:52.557Z,33.90
2018-07-26T09:02:52.562Z,33.83
2018-07-26T09:03:52.552Z,34.14
2018-07-26T09:04:52.551Z,34.34
2018-07-26T09:05:52.544Z,34.44
2018-07-26T09:06:52.547Z,34.44
2018-07-26T09:07:52.549Z,34.46
2018-07-26T09:08:52.551Z,34.58
2018-07-26T09:09:52.581Z,34.73
2018-07-26T09:10:52.571Z,34.32
2018-07-26T09:11:52.541Z,33.63
2018-07-26T09:12:52.534Z,33.39
2018-07-26T09:13:52.589Z,33.30
2018-07-26T09:14:52.538Z,33.57
2018-07-26T09:15:52.531Z,33.76
2018-07-26T09:16:52.528Z,33.98
2018-07-26T09:17:52.526Z,33.92
2018-07-26T09:18:52.531Z,34.07
2018-07-26T09:19:52.614Z,33.86
2018-07-26T09:20:52.526Z,33.94
2018-07-26T09:21:52.522Z,33.95
2018-07-26T09:22:52.522Z,34.32
2018-07-26T09:23:52.519Z,34.41
2018-07-26T09:24:52.517Z,34.53
2018-07-26T09:25:52.516Z,34.54
2018-07-26T09:26:52.512Z,34.64
2018-07-26T09:27:52.517Z,34.69
2018-07-26T09:28:52.513Z,34.64
2018-07-26T09:29:52.506Z,34.50
2018-07-26T09:30:52.500Z,34.63
2018-07-26T09:31:52.503Z,34.48
2018-07-26T09:32:52.514Z,34.70
2018-07-26T09:33:52.493Z,34.73
2018-07-26T09:34:52.500Z,34.88
2018-07-26T09:35:52.490Z,34.81
2018-07-26T09:36:52.487Z,35.01
2018-07-26T09:37:52.493Z,35.02
2018-07-26T09:38:52.490Z,34.89
2018-07-26T09:39:52.484Z,34.73
2018-07-26T09:40:52.487Z,34.64
2018-07-26T09:41:52.484Z,34.63
2018-07-26T09:42:52.484Z,34.34
2018-07-26T09:43:52.484Z,34.34
2018-07-26T09:44:52.487Z,34.20
2018-07-26T09:45:52.478Z,34.32
2018-07-26T09:46:52.472Z,34.61
2018-07-26T09:47:52.479Z,34.89
2018-07-26T09:48:52.468Z,34.84
2018-07-26T09:49:52.516Z,34.77
2018-07-26T09:50:52.465Z,34.72
2018-07-26T09:51:52.470Z,34.79
2018-07-26T09:52:52.508Z,34.46
2018-07-26T09:53:52.458Z,34.72
2018-07-26T09:54:52.471Z,34.46
2018-07-26T09:55:52.459Z,34.57
2018-07-26T09:56:52.462Z,34.42
2018-07-26T09:57:52.459Z,34.32
2018-07-26T09:58:52.456Z,34.36
2018-07-26T09:59:52.494Z,34.44
2018-07-26T10:00:52.450Z,34.61
2018-07-26T10:01:52.446Z,34.79
2018-07-26T10:02:52.446Z,34.76
2018-07-26T10:03:52.459Z,34.76
2018-07-26T10:04:52.443Z,34.58
2018-07-26T10:05:52.440Z,34.48
2018-07-26T10:06:52.485Z,34.36
2018-07-26T10:07:52.444Z,34.46
2018-07-26T10:08:52.440Z,34.64
2018-07-26T10:09:52.443Z,34.79
2018-07-26T10:10:52.440Z,34.77
2018-07-26T10:11:52.434Z,34.81
2018-07-26T10:12:52.441Z,34.84
2018-07-26T10:13:52.441Z,34.27
2018-07-26T10:14:52.429Z,34.08
2018-07-26T10:15:52.454Z,34.11
2018-07-26T10:16:52.431Z,34.23
2018-07-26T10:17:52.434Z,34.24
2018-07-26T10:18:52.434Z,34.41
2018-07-26T10:19:52.431Z,34.58
2018-07-26T10:20:52.428Z,34.74
2018-07-26T10:21:52.430Z,34.74
2018-07-26T10:22:52.431Z,34.73
2018-07-26T10:23:52.425Z,34.46
2018-07-26T10:24:52.424Z,34.35
2018-07-26T10:25:52.431Z,34.50
2018-07-26T10:26:52.430Z,34.42
2018-07-26T10:27:52.440Z,34.20
2018-07-26T10:28:52.430Z,34.20
2018-07-26T10:29:52.424Z,34.16
2018-07-26T10:30:52.434Z,34.27
2018-07-26T10:31:52.437Z,34.35
2018-07-26T10:32:52.434Z,34.27
2018-07-26T10:33:52.431Z,34.46
2018-07-26T10:34:52.427Z,34.56
2018-07-26T10:35:52.437Z,34.54
2018-07-26T10:36:52.428Z,34.76
2018-07-26T10:37:52.428Z,34.70
2018-07-26T10:38:52.437Z,34.77
2018-07-26T10:39:52.431Z,34.88
2018-07-26T10:40:52.437Z,34.74
2018-07-26T10:41:52.434Z,34.70
2018-07-26T10:42:52.437Z,34.76
2018-07-26T10:43:52.446Z,34.74
2018-07-26T10:44:52.440Z,34.45
2018-07-26T10:45:52.443Z,34.45
2018-07-26T10:46:52.450Z,34.50
2018-07-26T10:47:52.453Z,34.36
2018-07-26T10:48:52.453Z,34.48
2018-07-26T10:49:52.495Z,34.63
2018-07-26T10:50:52.459Z,34.79
2018-07-26T10:51:52.462Z,34.74
2018-07-26T10:52:52.459Z,35.02
2018-07-26T10:53:52.473Z,34.99
2018-07-26T10:54:52.471Z,34.95
2018-07-26T10:55:52.469Z,34.86
2018-07-26T10:56:52.475Z,34.92
2018-07-26T10:57:52.472Z,34.98
2018-07-26T10:58:52.478Z,34.96
2018-07-26T10:59:52.481Z,35.01
2018-07-26T11:00:52.490Z,35.18
2018-07-26T11:01:52.497Z,35.06
2018-07-26T11:02:52.494Z,35.14
2018-07-26T11:03:52.514Z,35.18
2018-07-26T11:04:52.500Z,35.21
2018-07-26T11:05:52.516Z,34.57
2018-07-26T11:06:52.516Z,34.42
2018-07-26T11:07:52.519Z,34.63
2018-07-26T11:08:52.522Z,34.61
2018-07-26T11:09:52.530Z,34.91
2018-07-26T11:10:52.533Z,35.02
2018-07-26T11:11:52.558Z,35.02
2018-07-26T11:12:52.544Z,35.01
2018-07-26T11:13:52.540Z,35.28
2018-07-26T11:14:52.549Z,35.20
2018-07-26T11:15:52.555Z,35.18
2018-07-26T11:16:52.565Z,35.20
2018-07-26T11:17:52.564Z,35.45
2018-07-26T11:18:52.701Z,35.55
2018-07-26T11:19:52.735Z,35.67
2018-07-26T11:20:52.730Z,35.79
2018-07-26T11:21:52.590Z,35.79
2018-07-26T11:22:52.590Z,35.89
2018-07-26T11:23:52.976Z,36.06
2018-07-26T11:24:52.932Z,36.15
2018-07-26T11:25:52.619Z,36.38
2018-07-26T11:26:52.670Z,36.36
2018-07-26T11:27:52.625Z,35.86
2018-07-26T11:28:52.635Z,35.99
2018-07-26T11:29:52.667Z,36.03
2018-07-26T11:30:52.648Z,36.31
2018-07-26T11:31:52.654Z,36.15
2018-07-26T11:32:52.657Z,36.24
2018-07-26T11:33:52.670Z,36.68
2018-07-26T11:34:52.674Z,36.35
2018-07-26T11:35:52.691Z,36.12
2018-07-26T11:36:52.688Z,36.12
2018-07-26T11:37:52.699Z,36.15
2018-07-26T11:38:52.700Z,36.33
2018-07-26T11:39:52.713Z,36.42
2018-07-26T11:40:52.716Z,36.63
2018-07-26T11:41:52.726Z,36.48
2018-07-26T11:42:52.732Z,36.60
2018-07-26T11:43:52.748Z,36.63
2018-07-26T11:44:52.748Z,36.72
2018-07-26T11:45:52.755Z,36.72
2018-07-26T11:46:52.764Z,36.70
2018-07-26T11:47:52.771Z,36.95
2018-07-26T11:48:52.783Z,36.79
2018-07-26T11:49:52.787Z,36.82
2018-07-26T11:50:52.810Z,36.65
2018-07-26T11:51:52.813Z,36.73
2018-07-26T11:52:52.842Z,36.72
2018-07-26T11:53:52.827Z,36.63
2018-07-26T11:54:52.842Z,36.83
2018-07-26T11:55:52.851Z,36.85
2018-07-26T11:56:52.896Z,36.19
2018-07-26T11:57:52.864Z,36.51
2018-07-26T11:58:52.873Z,36.56
2018-07-26T11:59:52.880Z,36.48
2018-07-26T12:00:52.886Z,36.72
2018-07-26T12:01:52.903Z,36.91
2018-07-26T12:02:52.905Z,37.21
2018-07-26T12:03:52.922Z,37.46
2018-07-26T12:04:52.932Z,37.28
2018-07-26T12:05:52.931Z,37.35
2018-07-26T12:06:52.947Z,37.46
2018-07-26T12:07:52.956Z,37.51
2018-07-26T12:08:52.960Z,37.38
2018-07-26T12:09:52.969Z,37.61
2018-07-26T12:10:52.983Z,38.07
2018-07-26T12:11:52.995Z,38.11
2018-07-26T12:12:52.995Z,38.20
2018-07-26T12:13:53.008Z,38.04
2018-07-26T12:14:53.019Z,37.85
2018-07-26T12:15:53.032Z,37.39
2018-07-26T12:16:53.042Z,37.13
2018-07-26T12:17:53.047Z,37.24
2018-07-26T12:18:53.056Z,37.46
2018-07-26T12:19:53.062Z,37.81
2018-07-26T12:20:53.072Z,38.05
2018-07-26T12:21:53.084Z,38.03
2018-07-26T12:22:53.095Z,38.11
2018-07-26T12:23:53.104Z,37.67
2018-07-26T12:24:53.113Z,37.85
2018-07-26T12:25:53.121Z,37.92
2018-07-26T12:26:53.203Z,37.74
2018-07-26T12:27:53.146Z,38.04
2018-07-26T12:28:53.149Z,38.15
2018-07-26T12:29:53.162Z,37.50
2018-07-26T12:30:53.166Z,37.32
2018-07-26T12:31:53.174Z,36.83
2018-07-26T12:32:53.184Z,36.86
2018-07-26T12:33:53.195Z,37.43
2018-07-26T12:34:53.206Z,37.92
2018-07-26T12:35:53.257Z,37.83
2018-07-26T12:36:53.229Z,37.81
2018-07-26T12:37:53.229Z,37.77
2018-07-26T12:38:53.241Z,37.23
2018-07-26T12:39:53.283Z,36.64
2018-07-26T12:40:53.287Z,36.43
2018-07-26T12:41:53.287Z,36.77
2018-07-26T12:42:53.284Z,36.86
2018-07-26T12:43:53.290Z,37.23
2018-07-26T12:44:53.304Z,38.01
2018-07-26T12:45:53.313Z,38.44
2018-07-26T12:46:53.317Z,38.49
2018-07-26T12:47:53.410Z,38.98
2018-07-26T12:48:53.338Z,39.43
2018-07-26T12:49:53.348Z,39.44
2018-07-26T12:50:53.401Z,39.56
2018-07-26T12:51:53.370Z,39.14
2018-07-26T12:52:53.384Z,38.38